ニューヨーク/JFK の空港の天気 - METARとTAF

ジョン・F・ケネディ国際空港 ( KJFK / JFK ) - アメリカ ニューヨーク州ニューヨーク
飛行場実況気象(Metar)
観測時間12/09 10:51 EST (12/09 15:51 UTC)
風向・風速北 7m/s
視程10km以上
天気現象
少しの雲 雲底高度 1370m
気温5.6℃
湿度50%
気圧1025.8hPa
METARKJFK 091551Z 01014KT 10SM FEW045 06/M04 A3029 RMK AO2 SLP258 T00561039
過去の天気等 Google飛行場航空写真 Wunderground天気予報

過去48時間のMETAR

飛行場予報(TAF)
発表時間: 12/09 09:52 EST (12/09 14:52 UTC)
予報対象時間: 9日10時 EST ~ 10日13時 EST
風向・風速北 8m/s 瞬間風速 11m/s
視程10km以上
なし
9日12時 EST から
風向・風速北 7m/s
視程10km以上
なし
9日18時 EST から
風向・風速北 5m/s
視程10km以上
なし
10日8時 EST から
風向・風速北北東 6m/s
視程10km以上
全天の4割程度の雲 雲底高度 1070m
KJFK 091452Z 0915/1018 01015G21KT P6SM SKC
FM091700 36013KT P6SM SKC
FM092300 01010KT P6SM SKC
FM101300 02012KT P6SM SCT035